sensor_id;sensor_type;location;lat;lon;timestamp;P1;durP1;ratioP1;P2;durP2;ratioP2
66667;SDS011;57205;51.438;-2.006;2022-07-18T00:02:12;17.40;;;11.48;;
66667;SDS011;57205;51.438;-2.006;2022-07-18T00:04:38;14.13;;;8.48;;
66667;SDS011;57205;51.438;-2.006;2022-07-18T00:07:03;17.55;;;9.02;;
66667;SDS011;57205;51.438;-2.006;2022-07-18T00:09:29;15.13;;;8.60;;
66667;SDS011;57205;51.438;-2.006;2022-07-18T00:11:55;15.50;;;8.52;;
66667;SDS011;57205;51.438;-2.006;2022-07-18T00:14:20;12.00;;;7.68;;
66667;SDS011;57205;51.438;-2.006;2022-07-18T00:16:46;12.82;;;8.65;;
66667;SDS011;57205;51.438;-2.006;2022-07-18T00:19:13;15.60;;;9.05;;
66667;SDS011;57205;51.438;-2.006;2022-07-18T00:21:39;16.58;;;11.00;;
66667;SDS011;57205;51.438;-2.006;2022-07-18T00:24:04;17.10;;;9.90;;
66667;SDS011;57205;51.438;-2.006;2022-07-18T00:26:30;17.50;;;10.13;;
66667;SDS011;57205;51.438;-2.006;2022-07-18T00:28:56;15.90;;;9.50;;
66667;SDS011;57205;51.438;-2.006;2022-07-18T00:31:21;15.32;;;8.93;;
66667;SDS011;57205;51.438;-2.006;2022-07-18T00:33:47;13.40;;;10.02;;
66667;SDS011;57205;51.438;-2.006;2022-07-18T00:36:12;20.15;;;12.23;;
66667;SDS011;57205;51.438;-2.006;2022-07-18T00:38:38;25.23;;;15.27;;
66667;SDS011;57205;51.438;-2.006;2022-07-18T00:41:03;27.77;;;17.55;;
66667;SDS011;57205;51.438;-2.006;2022-07-18T00:43:29;34.90;;;22.58;;
66667;SDS011;57205;51.438;-2.006;2022-07-18T00:45:55;36.40;;;24.90;;
66667;SDS011;57205;51.438;-2.006;2022-07-18T00:48:20;39.53;;;25.40;;
66667;SDS011;57205;51.438;-2.006;2022-07-18T00:50:46;38.45;;;25.17;;
66667;SDS011;57205;51.438;-2.006;2022-07-18T00:53:12;40.00;;;26.10;;
66667;SDS011;57205;51.438;-2.006;2022-07-18T00:55:38;45.78;;;27.33;;
66667;SDS011;57205;51.438;-2.006;2022-07-18T00:58:06;37.90;;;25.55;;
66667;SDS011;57205;51.438;-2.006;2022-07-18T01:00:33;40.58;;;27.15;;
66667;SDS011;57205;51.438;-2.006;2022-07-18T01:03:17;41.47;;;27.83;;
66667;SDS011;57205;51.438;-2.006;2022-07-18T01:05:42;47.33;;;31.02;;
66667;SDS011;57205;51.438;-2.006;2022-07-18T01:08:07;53.00;;;33.70;;
66667;SDS011;57205;51.438;-2.006;2022-07-18T01:10:33;55.97;;;35.47;;
66667;SDS011;57205;51.438;-2.006;2022-07-18T01:12:58;53.05;;;34.20;;
66667;SDS011;57205;51.438;-2.006;2022-07-18T01:15:24;52.60;;;34.92;;
66667;SDS011;57205;51.438;-2.006;2022-07-18T01:17:49;53.50;;;34.85;;
66667;SDS011;57205;51.438;-2.006;2022-07-18T01:20:15;53.63;;;34.90;;
66667;SDS011;57205;51.438;-2.006;2022-07-18T01:22:40;52.80;;;34.05;;
66667;SDS011;57205;51.438;-2.006;2022-07-18T01:25:07;52.50;;;35.42;;
66667;SDS011;57205;51.438;-2.006;2022-07-18T01:27:34;55.45;;;38.40;;
66667;SDS011;57205;51.438;-2.006;2022-07-18T01:30:00;54.58;;;36.38;;
66667;SDS011;57205;51.438;-2.006;2022-07-18T01:32:26;52.97;;;35.08;;
66667;SDS011;57205;51.438;-2.006;2022-07-18T01:34:51;56.08;;;35.72;;
66667;SDS011;57205;51.438;-2.006;2022-07-18T01:37:17;48.78;;;32.67;;
66667;SDS011;57205;51.438;-2.006;2022-07-18T01:39:43;54.35;;;35.10;;
66667;SDS011;57205;51.438;-2.006;2022-07-18T01:42:10;54.00;;;34.13;;
66667;SDS011;57205;51.438;-2.006;2022-07-18T01:44:37;47.53;;;32.13;;
66667;SDS011;57205;51.438;-2.006;2022-07-18T01:47:03;49.63;;;32.83;;
66667;SDS011;57205;51.438;-2.006;2022-07-18T01:49:30;46.88;;;31.60;;
66667;SDS011;57205;51.438;-2.006;2022-07-18T01:51:56;47.95;;;32.80;;
66667;SDS011;57205;51.438;-2.006;2022-07-18T01:54:23;50.33;;;32.47;;
66667;SDS011;57205;51.438;-2.006;2022-07-18T01:56:50;55.22;;;34.33;;
66667;SDS011;57205;51.438;-2.006;2022-07-18T01:59:15;48.78;;;33.55;;
66667;SDS011;57205;51.438;-2.006;2022-07-18T02:01:41;52.35;;;34.15;;
66667;SDS011;57205;51.438;-2.006;2022-07-18T02:04:06;50.28;;;32.80;;
66667;SDS011;57205;51.438;-2.006;2022-07-18T02:06:32;54.08;;;33.90;;
66667;SDS011;57205;51.438;-2.006;2022-07-18T02:08:57;49.17;;;33.35;;
66667;SDS011;57205;51.438;-2.006;2022-07-18T02:11:22;50.95;;;33.08;;
66667;SDS011;57205;51.438;-2.006;2022-07-18T02:13:48;50.88;;;33.33;;
66667;SDS011;57205;51.438;-2.006;2022-07-18T02:16:14;50.42;;;32.33;;
66667;SDS011;57205;51.438;-2.006;2022-07-18T02:18:39;49.05;;;32.00;;
66667;SDS011;57205;51.438;-2.006;2022-07-18T02:21:05;49.47;;;30.92;;
66667;SDS011;57205;51.438;-2.006;2022-07-18T02:23:31;45.65;;;30.08;;
66667;SDS011;57205;51.438;-2.006;2022-07-18T02:25:56;49.25;;;30.85;;
66667;SDS011;57205;51.438;-2.006;2022-07-18T02:28:22;48.22;;;32.58;;
66667;SDS011;57205;51.438;-2.006;2022-07-18T02:30:47;49.47;;;32.83;;
66667;SDS011;57205;51.438;-2.006;2022-07-18T02:33:13;48.50;;;32.92;;
66667;SDS011;57205;51.438;-2.006;2022-07-18T02:35:40;49.70;;;32.28;;
66667;SDS011;57205;51.438;-2.006;2022-07-18T02:38:06;54.03;;;33.63;;
66667;SDS011;57205;51.438;-2.006;2022-07-18T02:40:32;49.28;;;33.22;;
66667;SDS011;57205;51.438;-2.006;2022-07-18T02:42:57;55.15;;;34.10;;
66667;SDS011;57205;51.438;-2.006;2022-07-18T02:45:23;55.78;;;34.95;;
66667;SDS011;57205;51.438;-2.006;2022-07-18T02:47:48;54.50;;;35.17;;
66667;SDS011;57205;51.438;-2.006;2022-07-18T02:50:14;46.85;;;33.25;;
66667;SDS011;57205;51.438;-2.006;2022-07-18T02:52:40;54.70;;;35.22;;
66667;SDS011;57205;51.438;-2.006;2022-07-18T02:55:06;45.75;;;32.42;;
66667;SDS011;57205;51.438;-2.006;2022-07-18T02:57:32;48.38;;;31.20;;
66667;SDS011;57205;51.438;-2.006;2022-07-18T02:59:58;44.58;;;29.40;;
66667;SDS011;57205;51.438;-2.006;2022-07-18T03:02:23;45.42;;;29.00;;
66667;SDS011;57205;51.438;-2.006;2022-07-18T03:04:49;42.40;;;29.45;;
66667;SDS011;57205;51.438;-2.006;2022-07-18T03:07:14;41.33;;;28.80;;
66667;SDS011;57205;51.438;-2.006;2022-07-18T03:09:39;44.28;;;28.52;;
66667;SDS011;57205;51.438;-2.006;2022-07-18T03:12:05;44.33;;;29.42;;
66667;SDS011;57205;51.438;-2.006;2022-07-18T03:14:31;45.83;;;30.13;;
66667;SDS011;57205;51.438;-2.006;2022-07-18T03:16:57;46.70;;;29.25;;
66667;SDS011;57205;51.438;-2.006;2022-07-18T03:19:22;43.60;;;28.70;;
66667;SDS011;57205;51.438;-2.006;2022-07-18T03:21:48;45.95;;;30.10;;
66667;SDS011;57205;51.438;-2.006;2022-07-18T03:24:13;48.78;;;30.63;;
66667;SDS011;57205;51.438;-2.006;2022-07-18T03:26:39;47.58;;;32.40;;
66667;SDS011;57205;51.438;-2.006;2022-07-18T03:29:05;47.85;;;32.08;;
66667;SDS011;57205;51.438;-2.006;2022-07-18T03:31:30;48.17;;;30.63;;
66667;SDS011;57205;51.438;-2.006;2022-07-18T03:33:56;46.65;;;29.52;;
66667;SDS011;57205;51.438;-2.006;2022-07-18T03:36:22;51.30;;;32.35;;
66667;SDS011;57205;51.438;-2.006;2022-07-18T03:38:47;48.42;;;29.95;;
66667;SDS011;57205;51.438;-2.006;2022-07-18T03:41:12;49.72;;;31.95;;
66667;SDS011;57205;51.438;-2.006;2022-07-18T03:43:38;45.58;;;30.80;;
66667;SDS011;57205;51.438;-2.006;2022-07-18T03:46:05;52.47;;;33.33;;
66667;SDS011;57205;51.438;-2.006;2022-07-18T03:48:31;55.72;;;35.92;;
66667;SDS011;57205;51.438;-2.006;2022-07-18T03:50:58;51.90;;;34.20;;
66667;SDS011;57205;51.438;-2.006;2022-07-18T03:53:24;55.80;;;33.65;;
66667;SDS011;57205;51.438;-2.006;2022-07-18T03:55:50;54.95;;;34.47;;
66667;SDS011;57205;51.438;-2.006;2022-07-18T03:58:15;51.38;;;31.88;;
66667;SDS011;57205;51.438;-2.006;2022-07-18T04:00:41;51.67;;;31.90;;
66667;SDS011;57205;51.438;-2.006;2022-07-18T04:03:06;44.83;;;30.67;;
66667;SDS011;57205;51.438;-2.006;2022-07-18T04:05:32;43.35;;;28.10;;
66667;SDS011;57205;51.438;-2.006;2022-07-18T04:07:57;47.72;;;27.63;;
66667;SDS011;57205;51.438;-2.006;2022-07-18T04:10:23;44.00;;;27.17;;
66667;SDS011;57205;51.438;-2.006;2022-07-18T04:12:52;39.80;;;26.60;;
66667;SDS011;57205;51.438;-2.006;2022-07-18T04:15:19;42.72;;;26.95;;
66667;SDS011;57205;51.438;-2.006;2022-07-18T04:17:46;41.33;;;25.83;;
66667;SDS011;57205;51.438;-2.006;2022-07-18T04:20:12;38.30;;;25.85;;
66667;SDS011;57205;51.438;-2.006;2022-07-18T04:25:18;39.35;;;25.58;;
66667;SDS011;57205;51.438;-2.006;2022-07-18T04:27:45;41.72;;;24.52;;
66667;SDS011;57205;51.438;-2.006;2022-07-18T04:30:11;29.92;;;19.00;;
66667;SDS011;57205;51.438;-2.006;2022-07-18T04:32:38;26.85;;;15.88;;
66667;SDS011;57205;51.438;-2.006;2022-07-18T04:35:04;25.20;;;16.88;;
66667;SDS011;57205;51.438;-2.006;2022-07-18T04:37:30;31.40;;;17.75;;
66667;SDS011;57205;51.438;-2.006;2022-07-18T04:39:57;34.05;;;21.58;;
66667;SDS011;57205;51.438;-2.006;2022-07-18T04:42:23;34.05;;;22.80;;
66667;SDS011;57205;51.438;-2.006;2022-07-18T04:44:48;36.33;;;23.30;;
66667;SDS011;57205;51.438;-2.006;2022-07-18T04:47:14;34.22;;;21.20;;
66667;SDS011;57205;51.438;-2.006;2022-07-18T04:49:39;33.97;;;22.50;;
66667;SDS011;57205;51.438;-2.006;2022-07-18T04:52:05;36.55;;;22.45;;
66667;SDS011;57205;51.438;-2.006;2022-07-18T04:54:30;34.08;;;22.15;;
66667;SDS011;57205;51.438;-2.006;2022-07-18T04:56:55;34.17;;;22.08;;
66667;SDS011;57205;51.438;-2.006;2022-07-18T04:59:21;35.88;;;24.08;;
66667;SDS011;57205;51.438;-2.006;2022-07-18T05:01:46;34.92;;;22.67;;
66667;SDS011;57205;51.438;-2.006;2022-07-18T05:04:12;38.00;;;22.17;;
66667;SDS011;57205;51.438;-2.006;2022-07-18T05:06:37;32.63;;;21.42;;
66667;SDS011;57205;51.438;-2.006;2022-07-18T05:09:03;36.30;;;22.98;;
66667;SDS011;57205;51.438;-2.006;2022-07-18T05:11:28;40.75;;;22.77;;
66667;SDS011;57205;51.438;-2.006;2022-07-18T05:13:54;35.30;;;20.67;;
66667;SDS011;57205;51.438;-2.006;2022-07-18T05:16:19;29.83;;;20.20;;
66667;SDS011;57205;51.438;-2.006;2022-07-18T05:18:45;30.15;;;19.13;;
66667;SDS011;57205;51.438;-2.006;2022-07-18T05:21:10;31.83;;;20.20;;
66667;SDS011;57205;51.438;-2.006;2022-07-18T05:23:36;34.60;;;21.02;;
66667;SDS011;57205;51.438;-2.006;2022-07-18T05:26:01;33.17;;;22.45;;
66667;SDS011;57205;51.438;-2.006;2022-07-18T05:28:27;37.08;;;24.60;;
66667;SDS011;57205;51.438;-2.006;2022-07-18T05:30:52;41.75;;;28.83;;
66667;SDS011;57205;51.438;-2.006;2022-07-18T05:33:19;41.08;;;26.70;;
66667;SDS011;57205;51.438;-2.006;2022-07-18T05:35:45;39.20;;;25.80;;
66667;SDS011;57205;51.438;-2.006;2022-07-18T05:38:10;38.75;;;24.48;;
66667;SDS011;57205;51.438;-2.006;2022-07-18T05:40:36;39.17;;;25.27;;
66667;SDS011;57205;51.438;-2.006;2022-07-18T05:43:01;37.97;;;23.48;;
66667;SDS011;57205;51.438;-2.006;2022-07-18T05:45:28;29.75;;;21.38;;
66667;SDS011;57205;51.438;-2.006;2022-07-18T05:47:53;30.27;;;21.02;;
66667;SDS011;57205;51.438;-2.006;2022-07-18T05:50:19;24.88;;;18.80;;
66667;SDS011;57205;51.438;-2.006;2022-07-18T05:52:45;28.45;;;18.77;;
66667;SDS011;57205;51.438;-2.006;2022-07-18T05:55:10;26.60;;;18.83;;
66667;SDS011;57205;51.438;-2.006;2022-07-18T05:57:36;29.48;;;18.30;;
66667;SDS011;57205;51.438;-2.006;2022-07-18T06:00:06;28.52;;;16.73;;
66667;SDS011;57205;51.438;-2.006;2022-07-18T06:02:33;23.05;;;16.60;;
66667;SDS011;57205;51.438;-2.006;2022-07-18T06:04:59;26.35;;;20.55;;
66667;SDS011;57205;51.438;-2.006;2022-07-18T06:07:25;21.63;;;15.30;;
66667;SDS011;57205;51.438;-2.006;2022-07-18T06:09:50;21.30;;;14.05;;
66667;SDS011;57205;51.438;-2.006;2022-07-18T06:12:16;18.63;;;13.40;;
66667;SDS011;57205;51.438;-2.006;2022-07-18T06:14:41;189.88;;;155.35;;
66667;SDS011;57205;51.438;-2.006;2022-07-18T06:17:07;18.92;;;12.00;;
66667;SDS011;57205;51.438;-2.006;2022-07-18T06:19:32;17.20;;;11.95;;
66667;SDS011;57205;51.438;-2.006;2022-07-18T06:21:58;15.70;;;11.05;;
66667;SDS011;57205;51.438;-2.006;2022-07-18T06:24:24;17.90;;;11.48;;
66667;SDS011;57205;51.438;-2.006;2022-07-18T06:26:50;14.32;;;10.25;;
66667;SDS011;57205;51.438;-2.006;2022-07-18T06:29:16;15.35;;;10.75;;
66667;SDS011;57205;51.438;-2.006;2022-07-18T06:31:43;17.67;;;10.40;;
66667;SDS011;57205;51.438;-2.006;2022-07-18T06:34:09;13.07;;;10.63;;
66667;SDS011;57205;51.438;-2.006;2022-07-18T06:36:34;13.50;;;10.48;;
66667;SDS011;57205;51.438;-2.006;2022-07-18T06:39:00;13.60;;;9.77;;
66667;SDS011;57205;51.438;-2.006;2022-07-18T06:41:26;16.10;;;9.18;;
66667;SDS011;57205;51.438;-2.006;2022-07-18T06:43:52;12.27;;;8.25;;
66667;SDS011;57205;51.438;-2.006;2022-07-18T06:46:18;16.40;;;8.60;;
66667;SDS011;57205;51.438;-2.006;2022-07-18T06:48:44;11.70;;;7.70;;
66667;SDS011;57205;51.438;-2.006;2022-07-18T06:51:10;10.93;;;8.20;;
66667;SDS011;57205;51.438;-2.006;2022-07-18T06:53:35;14.45;;;7.65;;
66667;SDS011;57205;51.438;-2.006;2022-07-18T06:56:01;13.93;;;7.47;;
66667;SDS011;57205;51.438;-2.006;2022-07-18T06:58:30;10.88;;;7.03;;
66667;SDS011;57205;51.438;-2.006;2022-07-18T07:00:56;11.27;;;7.28;;
66667;SDS011;57205;51.438;-2.006;2022-07-18T07:03:22;14.23;;;7.80;;
66667;SDS011;57205;51.438;-2.006;2022-07-18T07:05:48;9.77;;;6.50;;
66667;SDS011;57205;51.438;-2.006;2022-07-18T07:08:14;9.02;;;6.68;;
66667;SDS011;57205;51.438;-2.006;2022-07-18T07:10:39;11.57;;;5.85;;
66667;SDS011;57205;51.438;-2.006;2022-07-18T07:13:05;8.77;;;6.43;;
66667;SDS011;57205;51.438;-2.006;2022-07-18T07:15:31;10.63;;;6.28;;
66667;SDS011;57205;51.438;-2.006;2022-07-18T07:17:57;11.43;;;6.20;;
66667;SDS011;57205;51.438;-2.006;2022-07-18T07:20:23;11.93;;;5.97;;
66667;SDS011;57205;51.438;-2.006;2022-07-18T07:22:55;9.90;;;6.32;;
66667;SDS011;57205;51.438;-2.006;2022-07-18T07:25:24;10.35;;;6.35;;
66667;SDS011;57205;51.438;-2.006;2022-07-18T07:27:51;10.25;;;5.65;;
66667;SDS011;57205;51.438;-2.006;2022-07-18T07:30:18;8.75;;;5.82;;
66667;SDS011;57205;51.438;-2.006;2022-07-18T07:32:43;8.55;;;6.10;;
66667;SDS011;57205;51.438;-2.006;2022-07-18T07:35:10;8.95;;;5.63;;
66667;SDS011;57205;51.438;-2.006;2022-07-18T07:37:41;13.35;;;6.85;;
66667;SDS011;57205;51.438;-2.006;2022-07-18T07:40:08;13.13;;;6.05;;
66667;SDS011;57205;51.438;-2.006;2022-07-18T07:42:35;9.93;;;6.45;;
66667;SDS011;57205;51.438;-2.006;2022-07-18T07:45:01;9.23;;;5.57;;
66667;SDS011;57205;51.438;-2.006;2022-07-18T07:47:27;9.75;;;7.05;;
66667;SDS011;57205;51.438;-2.006;2022-07-18T07:49:56;18.15;;;6.43;;
66667;SDS011;57205;51.438;-2.006;2022-07-18T07:52:22;11.30;;;7.93;;
66667;SDS011;57205;51.438;-2.006;2022-07-18T07:54:49;9.85;;;5.80;;
66667;SDS011;57205;51.438;-2.006;2022-07-18T07:57:15;8.90;;;5.82;;
66667;SDS011;57205;51.438;-2.006;2022-07-18T07:59:41;9.35;;;6.38;;
66667;SDS011;57205;51.438;-2.006;2022-07-18T08:02:07;12.63;;;6.25;;
66667;SDS011;57205;51.438;-2.006;2022-07-18T08:04:33;9.25;;;6.70;;
66667;SDS011;57205;51.438;-2.006;2022-07-18T08:06:58;11.10;;;5.95;;
66667;SDS011;57205;51.438;-2.006;2022-07-18T08:09:24;9.98;;;6.07;;
66667;SDS011;57205;51.438;-2.006;2022-07-18T08:11:49;10.70;;;5.68;;
66667;SDS011;57205;51.438;-2.006;2022-07-18T08:14:15;10.00;;;5.43;;
66667;SDS011;57205;51.438;-2.006;2022-07-18T08:16:40;11.15;;;5.95;;
66667;SDS011;57205;51.438;-2.006;2022-07-18T08:19:06;10.07;;;5.38;;
66667;SDS011;57205;51.438;-2.006;2022-07-18T08:21:32;9.88;;;5.28;;
66667;SDS011;57205;51.438;-2.006;2022-07-18T08:23:58;10.50;;;5.18;;
66667;SDS011;57205;51.438;-2.006;2022-07-18T08:26:23;12.52;;;4.70;;
66667;SDS011;57205;51.438;-2.006;2022-07-18T08:28:49;7.70;;;4.05;;
66667;SDS011;57205;51.438;-2.006;2022-07-18T08:31:14;10.23;;;4.15;;
66667;SDS011;57205;51.438;-2.006;2022-07-18T08:33:40;8.38;;;3.88;;
66667;SDS011;57205;51.438;-2.006;2022-07-18T08:36:05;7.05;;;3.58;;
66667;SDS011;57205;51.438;-2.006;2022-07-18T08:38:33;8.45;;;3.47;;
66667;SDS011;57205;51.438;-2.006;2022-07-18T08:40:58;7.53;;;3.08;;
66667;SDS011;57205;51.438;-2.006;2022-07-18T08:43:26;5.35;;;2.90;;
66667;SDS011;57205;51.438;-2.006;2022-07-18T08:45:55;6.00;;;2.72;;
66667;SDS011;57205;51.438;-2.006;2022-07-18T08:48:26;5.55;;;3.42;;
66667;SDS011;57205;51.438;-2.006;2022-07-18T08:50:52;6.22;;;3.15;;
66667;SDS011;57205;51.438;-2.006;2022-07-18T08:53:17;4.45;;;2.70;;
66667;SDS011;57205;51.438;-2.006;2022-07-18T08:55:44;10.32;;;3.08;;
66667;SDS011;57205;51.438;-2.006;2022-07-18T08:58:10;6.13;;;2.70;;
66667;SDS011;57205;51.438;-2.006;2022-07-18T09:00:37;5.78;;;2.90;;
66667;SDS011;57205;51.438;-2.006;2022-07-18T09:03:03;6.53;;;3.00;;
66667;SDS011;57205;51.438;-2.006;2022-07-18T09:05:30;5.53;;;2.67;;
66667;SDS011;57205;51.438;-2.006;2022-07-18T09:08:10;4.13;;;2.50;;
66667;SDS011;57205;51.438;-2.006;2022-07-18T09:13:15;4.00;;;2.42;;
66667;SDS011;57205;51.438;-2.006;2022-07-18T09:20:59;5.50;;;2.50;;
66667;SDS011;57205;51.438;-2.006;2022-07-18T09:23:30;5.95;;;2.67;;
66667;SDS011;57205;51.438;-2.006;2022-07-18T09:25:56;3.80;;;2.20;;
66667;SDS011;57205;51.438;-2.006;2022-07-18T09:28:22;8.00;;;2.40;;
66667;SDS011;57205;51.438;-2.006;2022-07-18T09:30:48;6.38;;;2.90;;
66667;SDS011;57205;51.438;-2.006;2022-07-18T09:33:13;6.60;;;2.42;;
66667;SDS011;57205;51.438;-2.006;2022-07-18T09:35:44;7.72;;;2.85;;
66667;SDS011;57205;51.438;-2.006;2022-07-18T09:38:12;3.80;;;2.42;;
66667;SDS011;57205;51.438;-2.006;2022-07-18T09:40:41;6.30;;;2.45;;
66667;SDS011;57205;51.438;-2.006;2022-07-18T09:43:09;8.65;;;2.60;;
66667;SDS011;57205;51.438;-2.006;2022-07-18T09:45:40;4.32;;;2.55;;
66667;SDS011;57205;51.438;-2.006;2022-07-18T09:48:08;6.15;;;2.90;;
66667;SDS011;57205;51.438;-2.006;2022-07-18T09:53:04;5.22;;;2.33;;
66667;SDS011;57205;51.438;-2.006;2022-07-18T09:55:45;7.25;;;2.55;;
66667;SDS011;57205;51.438;-2.006;2022-07-18T09:58:14;8.17;;;2.67;;
66667;SDS011;57205;51.438;-2.006;2022-07-18T10:00:42;7.63;;;3.13;;
66667;SDS011;57205;51.438;-2.006;2022-07-18T10:03:07;7.03;;;2.80;;
66667;SDS011;57205;51.438;-2.006;2022-07-18T10:05:37;4.90;;;2.70;;
66667;SDS011;57205;51.438;-2.006;2022-07-18T10:08:09;6.63;;;2.50;;
66667;SDS011;57205;51.438;-2.006;2022-07-18T10:10:36;9.60;;;3.13;;
66667;SDS011;57205;51.438;-2.006;2022-07-18T10:13:03;6.78;;;2.72;;
66667;SDS011;57205;51.438;-2.006;2022-07-18T10:15:30;6.57;;;2.88;;
66667;SDS011;57205;51.438;-2.006;2022-07-18T10:17:58;8.13;;;2.88;;
66667;SDS011;57205;51.438;-2.006;2022-07-18T10:20:25;9.95;;;3.28;;
66667;SDS011;57205;51.438;-2.006;2022-07-18T10:22:54;7.03;;;2.70;;
66667;SDS011;57205;51.438;-2.006;2022-07-18T10:25:23;7.88;;;2.50;;
66667;SDS011;57205;51.438;-2.006;2022-07-18T10:28:22;6.30;;;2.75;;
66667;SDS011;57205;51.438;-2.006;2022-07-18T10:36:10;5.77;;;2.57;;
66667;SDS011;57205;51.438;-2.006;2022-07-18T10:38:37;7.38;;;2.40;;
66667;SDS011;57205;51.438;-2.006;2022-07-18T10:41:08;9.15;;;2.83;;
66667;SDS011;57205;51.438;-2.006;2022-07-18T10:43:39;7.57;;;2.35;;
66667;SDS011;57205;51.438;-2.006;2022-07-18T10:46:07;7.43;;;2.45;;
66667;SDS011;57205;51.438;-2.006;2022-07-18T10:56:20;5.30;;;2.20;;
66667;SDS011;57205;51.438;-2.006;2022-07-18T10:59:02;5.90;;;2.20;;
66667;SDS011;57205;51.438;-2.006;2022-07-18T11:01:54;4.93;;;2.30;;
66667;SDS011;57205;51.438;-2.006;2022-07-18T11:04:32;5.35;;;2.30;;
66667;SDS011;57205;51.438;-2.006;2022-07-18T11:09:40;5.65;;;2.40;;
66667;SDS011;57205;51.438;-2.006;2022-07-18T11:20:27;9.05;;;2.28;;
66667;SDS011;57205;51.438;-2.006;2022-07-18T11:23:02;4.03;;;2.38;;
66667;SDS011;57205;51.438;-2.006;2022-07-18T11:25:30;3.75;;;2.13;;
66667;SDS011;57205;51.438;-2.006;2022-07-18T11:27:56;4.97;;;2.90;;
66667;SDS011;57205;51.438;-2.006;2022-07-18T11:30:23;3.47;;;2.00;;
66667;SDS011;57205;51.438;-2.006;2022-07-18T11:32:49;4.80;;;2.10;;
66667;SDS011;57205;51.438;-2.006;2022-07-18T11:35:20;5.68;;;2.00;;
66667;SDS011;57205;51.438;-2.006;2022-07-18T11:37:47;4.03;;;1.98;;
66667;SDS011;57205;51.438;-2.006;2022-07-18T11:40:14;4.25;;;1.90;;
66667;SDS011;57205;51.438;-2.006;2022-07-18T11:42:40;4.53;;;1.80;;
66667;SDS011;57205;51.438;-2.006;2022-07-18T11:45:07;2.92;;;1.83;;
66667;SDS011;57205;51.438;-2.006;2022-07-18T11:47:48;8.77;;;1.95;;
66667;SDS011;57205;51.438;-2.006;2022-07-18T11:50:16;5.68;;;2.25;;
66667;SDS011;57205;51.438;-2.006;2022-07-18T11:52:43;4.55;;;2.00;;
66667;SDS011;57205;51.438;-2.006;2022-07-18T11:55:12;3.08;;;1.80;;
66667;SDS011;57205;51.438;-2.006;2022-07-18T11:57:38;4.32;;;1.73;;
66667;SDS011;57205;51.438;-2.006;2022-07-18T12:00:22;6.32;;;2.35;;
66667;SDS011;57205;51.438;-2.006;2022-07-18T12:05:34;5.72;;;2.08;;
66667;SDS011;57205;51.438;-2.006;2022-07-18T12:16:31;6.85;;;1.80;;
66667;SDS011;57205;51.438;-2.006;2022-07-18T12:19:17;3.40;;;1.90;;
66667;SDS011;57205;51.438;-2.006;2022-07-18T12:26:47;4.38;;;1.83;;
66667;SDS011;57205;51.438;-2.006;2022-07-18T12:29:12;3.13;;;1.80;;
66667;SDS011;57205;51.438;-2.006;2022-07-18T12:31:39;3.78;;;1.92;;
66667;SDS011;57205;51.438;-2.006;2022-07-18T12:34:13;5.88;;;1.98;;
66667;SDS011;57205;51.438;-2.006;2022-07-18T12:36:56;4.25;;;2.00;;
66667;SDS011;57205;51.438;-2.006;2022-07-18T12:39:26;5.10;;;2.10;;
66667;SDS011;57205;51.438;-2.006;2022-07-18T12:41:53;5.53;;;2.20;;
66667;SDS011;57205;51.438;-2.006;2022-07-18T12:44:19;5.78;;;2.20;;
66667;SDS011;57205;51.438;-2.006;2022-07-18T12:46:44;4.75;;;1.80;;
66667;SDS011;57205;51.438;-2.006;2022-07-18T12:49:10;4.88;;;2.20;;
66667;SDS011;57205;51.438;-2.006;2022-07-18T12:51:36;5.18;;;2.50;;
66667;SDS011;57205;51.438;-2.006;2022-07-18T12:54:01;5.55;;;2.30;;
66667;SDS011;57205;51.438;-2.006;2022-07-18T12:56:27;7.72;;;2.00;;
66667;SDS011;57205;51.438;-2.006;2022-07-18T12:58:53;4.47;;;2.17;;
66667;SDS011;57205;51.438;-2.006;2022-07-18T13:01:18;4.15;;;2.10;;
66667;SDS011;57205;51.438;-2.006;2022-07-18T13:03:44;3.45;;;2.22;;
66667;SDS011;57205;51.438;-2.006;2022-07-18T13:06:10;3.53;;;2.20;;
66667;SDS011;57205;51.438;-2.006;2022-07-18T13:08:35;4.63;;;2.38;;
66667;SDS011;57205;51.438;-2.006;2022-07-18T13:11:01;4.68;;;2.45;;
66667;SDS011;57205;51.438;-2.006;2022-07-18T13:13:26;7.07;;;2.45;;
66667;SDS011;57205;51.438;-2.006;2022-07-18T13:15:52;6.25;;;2.40;;
66667;SDS011;57205;51.438;-2.006;2022-07-18T13:18:17;5.65;;;2.50;;
66667;SDS011;57205;51.438;-2.006;2022-07-18T13:20:43;6.20;;;2.30;;
66667;SDS011;57205;51.438;-2.006;2022-07-18T13:23:08;9.23;;;2.30;;
66667;SDS011;57205;51.438;-2.006;2022-07-18T13:25:36;7.07;;;2.35;;
66667;SDS011;57205;51.438;-2.006;2022-07-18T13:28:02;4.43;;;2.33;;
66667;SDS011;57205;51.438;-2.006;2022-07-18T13:30:27;5.35;;;2.53;;
66667;SDS011;57205;51.438;-2.006;2022-07-18T13:32:53;6.30;;;2.47;;
66667;SDS011;57205;51.438;-2.006;2022-07-18T13:35:19;4.95;;;2.35;;
66667;SDS011;57205;51.438;-2.006;2022-07-18T13:37:45;8.85;;;2.67;;
66667;SDS011;57205;51.438;-2.006;2022-07-18T13:40:11;5.30;;;2.47;;
66667;SDS011;57205;51.438;-2.006;2022-07-18T13:42:38;5.63;;;2.08;;
66667;SDS011;57205;51.438;-2.006;2022-07-18T13:45:04;4.50;;;2.42;;
66667;SDS011;57205;51.438;-2.006;2022-07-18T13:47:31;3.60;;;2.10;;
66667;SDS011;57205;51.438;-2.006;2022-07-18T13:49:57;6.35;;;2.75;;
66667;SDS011;57205;51.438;-2.006;2022-07-18T13:52:22;3.47;;;2.28;;
66667;SDS011;57205;51.438;-2.006;2022-07-18T13:54:47;6.10;;;2.17;;
66667;SDS011;57205;51.438;-2.006;2022-07-18T13:57:14;4.20;;;2.20;;
66667;SDS011;57205;51.438;-2.006;2022-07-18T13:59:40;4.57;;;2.08;;
66667;SDS011;57205;51.438;-2.006;2022-07-18T14:02:05;2.97;;;1.80;;
66667;SDS011;57205;51.438;-2.006;2022-07-18T14:04:31;4.63;;;2.05;;
66667;SDS011;57205;51.438;-2.006;2022-07-18T14:06:56;6.10;;;1.95;;
66667;SDS011;57205;51.438;-2.006;2022-07-18T14:09:22;5.93;;;2.08;;
66667;SDS011;57205;51.438;-2.006;2022-07-18T14:11:47;5.95;;;2.25;;
66667;SDS011;57205;51.438;-2.006;2022-07-18T14:14:13;2.97;;;1.75;;
66667;SDS011;57205;51.438;-2.006;2022-07-18T14:16:39;4.43;;;2.17;;
66667;SDS011;57205;51.438;-2.006;2022-07-18T14:19:06;3.38;;;1.70;;
66667;SDS011;57205;51.438;-2.006;2022-07-18T14:21:32;6.20;;;2.03;;
66667;SDS011;57205;51.438;-2.006;2022-07-18T14:23:57;4.50;;;2.30;;
66667;SDS011;57205;51.438;-2.006;2022-07-18T14:26:23;8.25;;;1.98;;
66667;SDS011;57205;51.438;-2.006;2022-07-18T14:28:50;4.68;;;1.98;;
66667;SDS011;57205;51.438;-2.006;2022-07-18T14:31:16;3.00;;;1.75;;
66667;SDS011;57205;51.438;-2.006;2022-07-18T14:33:41;5.35;;;1.75;;
66667;SDS011;57205;51.438;-2.006;2022-07-18T14:36:07;3.05;;;1.48;;
66667;SDS011;57205;51.438;-2.006;2022-07-18T14:38:32;3.65;;;1.70;;
66667;SDS011;57205;51.438;-2.006;2022-07-18T14:40:58;4.05;;;1.77;;
66667;SDS011;57205;51.438;-2.006;2022-07-18T14:43:23;4.13;;;1.60;;
66667;SDS011;57205;51.438;-2.006;2022-07-18T14:45:49;4.60;;;1.60;;
66667;SDS011;57205;51.438;-2.006;2022-07-18T14:48:16;5.78;;;1.92;;
66667;SDS011;57205;51.438;-2.006;2022-07-18T14:50:42;4.15;;;1.77;;
66667;SDS011;57205;51.438;-2.006;2022-07-18T14:53:08;4.55;;;2.17;;
66667;SDS011;57205;51.438;-2.006;2022-07-18T14:55:34;8.50;;;5.78;;
66667;SDS011;57205;51.438;-2.006;2022-07-18T14:57:59;4.40;;;1.80;;
66667;SDS011;57205;51.438;-2.006;2022-07-18T15:00:25;3.47;;;1.70;;
66667;SDS011;57205;51.438;-2.006;2022-07-18T15:02:50;4.28;;;2.08;;
66667;SDS011;57205;51.438;-2.006;2022-07-18T15:05:16;6.00;;;1.88;;
66667;SDS011;57205;51.438;-2.006;2022-07-18T15:07:42;4.93;;;2.08;;
66667;SDS011;57205;51.438;-2.006;2022-07-18T15:10:08;3.50;;;2.08;;
66667;SDS011;57205;51.438;-2.006;2022-07-18T15:12:34;2.90;;;1.70;;